Terminal Aerodrome Forecast
Issued by NWS Wilmington, OH

Current Version | Previous Version | Text Only | Print | Product List | Glossary Off
Versions: 1 2 3 4 5 6 7 8 9 10 11 12 13 14 15 16 17 18 19 20 21 22 23 24

510
FTUS41 KILN 112055 AAA
TAFCVG
TAF AMD
KCVG 112055Z 1121/1224 VRB03KT P6SM SCT040
     FM120300 VRB03KT P6SM BKN120
     FM121000 VRB03KT P6SM BKN050 OVC080
     FM121400 24005KT P6SM OVC040
     FM121800 27010KT P6SM OVC025=

USA.gov is the U.S. government's official web portal to all federal, state and local government web resources and services.